createdAt,value
2018-10-21T00:01:41.439Z,7.10
2018-10-21T00:04:09.579Z,7.10
2018-10-21T00:06:37.989Z,7.00
2018-10-21T00:09:07.701Z,6.90
2018-10-21T00:11:35.838Z,6.90
2018-10-21T00:14:04.617Z,6.80
2018-10-21T00:16:32.768Z,6.80
2018-10-21T00:19:00.879Z,6.80
2018-10-21T00:21:29.078Z,6.70
2018-10-21T00:23:57.437Z,6.70
2018-10-21T00:26:25.556Z,6.70
2018-10-21T00:28:54.012Z,6.60
2018-10-21T00:31:22.354Z,6.60
2018-10-21T00:33:50.502Z,6.60
2018-10-21T00:36:19.282Z,6.50
2018-10-21T00:38:47.399Z,6.50
2018-10-21T00:41:15.885Z,6.50
2018-10-21T00:43:44.274Z,6.40
2018-10-21T00:46:12.384Z,6.40
2018-10-21T00:48:40.462Z,6.40
2018-10-21T00:51:08.892Z,6.40
2018-10-21T00:53:37.456Z,6.40
2018-10-21T00:56:05.678Z,6.30
2018-10-21T00:58:33.732Z,6.30
2018-10-21T01:01:01.969Z,6.30
2018-10-21T01:03:30.394Z,6.30
2018-10-21T01:05:58.553Z,6.30
2018-10-21T01:08:26.831Z,6.30
2018-10-21T01:10:54.944Z,6.30
2018-10-21T01:13:23.251Z,6.20
2018-10-21T01:15:51.391Z,6.20
2018-10-21T01:18:19.537Z,6.20
2018-10-21T01:20:47.850Z,6.20
2018-10-21T01:23:16.425Z,6.20
2018-10-21T01:25:44.573Z,6.10
2018-10-21T01:28:12.679Z,6.10
2018-10-21T01:30:41.041Z,6.10
2018-10-21T01:33:09.216Z,6.00
2018-10-21T01:35:37.306Z,6.00
2018-10-21T01:38:05.767Z,6.00
2018-10-21T01:40:35.891Z,5.90
2018-10-21T01:43:04.507Z,5.90
2018-10-21T01:45:32.701Z,5.90
2018-10-21T01:48:01.956Z,5.90
2018-10-21T01:50:30.043Z,5.90
2018-10-21T01:52:59.431Z,5.90
2018-10-21T01:55:27.734Z,5.90
2018-10-21T01:57:56.625Z,5.90
2018-10-21T02:00:25.652Z,5.90
2018-10-21T02:02:54.282Z,5.90
2018-10-21T02:05:22.702Z,5.90
2018-10-21T02:07:50.890Z,6.00
2018-10-21T02:10:19.322Z,6.00
2018-10-21T02:12:47.766Z,6.00
2018-10-21T02:15:16.326Z,6.00
2018-10-21T02:17:44.318Z,6.10
2018-10-21T02:20:13.469Z,6.10
2018-10-21T02:22:42.609Z,6.10
2018-10-21T02:25:10.797Z,6.20
2018-10-21T02:27:39.754Z,6.20
2018-10-21T02:30:09.709Z,6.20
2018-10-21T02:32:37.807Z,6.20
2018-10-21T02:35:06.575Z,6.20
2018-10-21T02:37:34.902Z,6.20
2018-10-21T02:40:02.968Z,6.20
2018-10-21T02:42:31.225Z,6.20
2018-10-21T02:44:59.453Z,6.20
2018-10-21T02:47:27.642Z,6.20
2018-10-21T02:49:55.974Z,6.20
2018-10-21T02:52:24.374Z,6.20
2018-10-21T02:54:52.553Z,6.20
2018-10-21T02:57:20.869Z,6.20
2018-10-21T02:59:49.376Z,6.20
2018-10-21T03:02:17.665Z,6.20
2018-10-21T03:04:45.951Z,6.20
2018-10-21T03:07:14.399Z,6.10
2018-10-21T03:09:42.749Z,6.10
2018-10-21T03:12:10.938Z,6.10
2018-10-21T03:14:39.054Z,6.10
2018-10-21T03:17:07.191Z,6.20
2018-10-21T03:19:35.476Z,6.20
2018-10-21T03:22:06.322Z,6.30
2018-10-21T03:24:34.456Z,6.30
2018-10-21T03:27:02.696Z,6.40
2018-10-21T03:29:30.956Z,6.40
2018-10-21T03:31:59.051Z,6.40
2018-10-21T03:34:27.267Z,6.40
2018-10-21T03:36:55.422Z,6.40
2018-10-21T03:39:23.600Z,6.50
2018-10-21T03:41:51.921Z,6.50
2018-10-21T03:44:20.559Z,6.50
2018-10-21T03:46:48.778Z,6.50
2018-10-21T03:49:17.302Z,6.50
2018-10-21T03:51:45.676Z,6.50
2018-10-21T03:54:13.779Z,6.50
2018-10-21T03:56:42.117Z,6.40
2018-10-21T03:59:10.344Z,6.40
2018-10-21T04:01:38.433Z,6.30
2018-10-21T04:04:07.005Z,6.40
2018-10-21T04:06:35.211Z,6.40
2018-10-21T04:09:03.437Z,6.40
2018-10-21T04:11:31.724Z,6.50
2018-10-21T04:14:00.283Z,6.50
2018-10-21T04:16:28.378Z,6.50
2018-10-21T04:18:56.693Z,6.50
2018-10-21T04:21:25.027Z,6.50
2018-10-21T04:23:53.144Z,6.50
2018-10-21T04:26:21.328Z,6.40
2018-10-21T04:28:49.748Z,6.40
2018-10-21T04:31:18.285Z,6.40
2018-10-21T04:33:46.703Z,6.50
2018-10-21T04:36:21.636Z,6.50
2018-10-21T04:38:55.348Z,6.50
2018-10-21T04:41:23.676Z,6.50
2018-10-21T04:43:51.761Z,6.50
2018-10-21T04:46:20.060Z,6.50
2018-10-21T04:48:48.512Z,6.50
2018-10-21T04:51:16.766Z,6.40
2018-10-21T04:53:44.973Z,6.40
2018-10-21T04:56:13.204Z,6.40
2018-10-21T04:58:41.332Z,6.40
2018-10-21T05:01:09.623Z,6.40
2018-10-21T05:03:37.905Z,6.50
2018-10-21T05:06:05.974Z,6.50
2018-10-21T05:08:34.199Z,6.60
2018-10-21T05:11:02.800Z,6.60
2018-10-21T05:13:30.958Z,6.60
2018-10-21T05:15:59.189Z,6.70
2018-10-21T05:18:27.501Z,6.70
2018-10-21T05:20:55.580Z,6.80
2018-10-21T05:23:23.789Z,6.80
2018-10-21T05:25:52.062Z,6.80
2018-10-21T05:28:20.196Z,6.80
2018-10-21T05:30:48.634Z,6.90
2018-10-21T05:33:17.395Z,6.90
2018-10-21T05:35:45.542Z,6.90
2018-10-21T05:38:13.735Z,7.00
2018-10-21T05:40:42.116Z,7.00
2018-10-21T05:43:10.122Z,7.00
2018-10-21T05:45:38.743Z,7.00
2018-10-21T05:48:06.952Z,7.10
2018-10-21T05:50:35.150Z,7.10
2018-10-21T05:53:03.380Z,7.10
2018-10-21T05:55:31.609Z,7.10
2018-10-21T05:57:59.782Z,7.10
2018-10-21T06:00:27.949Z,7.10
2018-10-21T06:02:56.270Z,7.20
2018-10-21T06:05:54.957Z,7.20
2018-10-21T06:08:23.239Z,7.20
2018-10-21T06:10:51.517Z,7.30
2018-10-21T06:13:20.648Z,7.30
2018-10-21T06:15:49.677Z,7.30
2018-10-21T06:18:25.955Z,7.30
2018-10-21T06:20:57.316Z,7.30
2018-10-21T06:23:25.479Z,7.40
2018-10-21T06:25:53.675Z,7.40
2018-10-21T06:28:21.862Z,7.40
2018-10-21T06:30:50.241Z,7.40
2018-10-21T06:33:18.383Z,7.50
2018-10-21T06:35:46.516Z,7.50
2018-10-21T06:38:14.738Z,7.60
2018-10-21T06:40:42.879Z,7.60
2018-10-21T06:43:11.048Z,7.70
2018-10-21T06:45:39.235Z,7.70
2018-10-21T06:48:07.363Z,7.70
2018-10-21T06:50:35.525Z,7.70
2018-10-21T06:53:03.728Z,7.70
2018-10-21T06:55:31.932Z,7.70
2018-10-21T06:58:00.146Z,7.70
2018-10-21T07:00:28.309Z,7.70
2018-10-21T07:02:56.434Z,7.70
2018-10-21T07:05:29.931Z,7.70
2018-10-21T07:07:58.059Z,7.80
2018-10-21T07:10:26.184Z,7.80
2018-10-21T07:12:55.468Z,7.80
2018-10-21T07:15:23.933Z,7.80
2018-10-21T07:17:52.013Z,7.90
2018-10-21T07:20:20.327Z,7.90
2018-10-21T07:22:48.631Z,7.90
2018-10-21T07:25:16.999Z,7.90
2018-10-21T07:27:45.394Z,7.90
2018-10-21T07:30:14.033Z,8.00
2018-10-21T07:32:43.049Z,8.00
2018-10-21T07:35:13.001Z,8.10
2018-10-21T07:37:41.917Z,8.10
2018-10-21T07:40:10.682Z,8.10
2018-10-21T07:42:39.129Z,8.20
2018-10-21T07:45:07.267Z,8.20
2018-10-21T07:47:35.326Z,8.30
2018-10-21T07:50:03.679Z,8.30
2018-10-21T07:52:31.751Z,8.40
2018-10-21T07:54:59.848Z,8.40
2018-10-21T07:57:28.128Z,8.50
2018-10-21T07:59:56.184Z,8.50
2018-10-21T08:02:24.323Z,8.50
2018-10-21T08:04:52.542Z,8.60
2018-10-21T08:07:26.096Z,8.60
2018-10-21T08:09:54.894Z,8.60
2018-10-21T08:12:22.972Z,8.70
2018-10-21T08:14:51.248Z,8.70
2018-10-21T08:17:19.866Z,8.70
2018-10-21T08:19:48.211Z,8.80
2018-10-21T08:22:16.874Z,8.80
2018-10-21T08:24:44.954Z,8.80
2018-10-21T08:27:13.028Z,8.90
2018-10-21T08:29:41.503Z,8.80
2018-10-21T08:32:09.642Z,8.90
2018-10-21T08:34:37.706Z,8.90
2018-10-21T08:37:05.815Z,8.90
2018-10-21T08:39:33.969Z,8.90
2018-10-21T08:42:02.142Z,8.90
2018-10-21T08:44:30.243Z,9.00
2018-10-21T08:46:58.419Z,9.00
2018-10-21T08:49:26.557Z,9.00
2018-10-21T08:51:54.654Z,9.00
2018-10-21T08:54:22.793Z,9.00
2018-10-21T08:56:50.845Z,9.10
2018-10-21T08:59:19.123Z,9.10
2018-10-21T09:01:47.374Z,9.10
2018-10-21T09:04:15.584Z,9.10
2018-10-21T09:06:43.654Z,9.10
2018-10-21T09:09:12.504Z,9.10
2018-10-21T09:11:41.030Z,9.20
2018-10-21T09:14:09.089Z,9.10
2018-10-21T09:16:37.333Z,9.20
2018-10-21T09:19:05.673Z,9.10
2018-10-21T09:21:33.823Z,9.20
2018-10-21T09:24:02.060Z,9.20
2018-10-21T09:26:30.131Z,9.20
2018-10-21T09:28:58.235Z,9.20
2018-10-21T09:31:26.376Z,9.20
2018-10-21T09:33:54.543Z,9.20
2018-10-21T09:36:22.661Z,9.30
2018-10-21T09:38:50.812Z,9.20
2018-10-21T09:41:19.114Z,9.30
2018-10-21T09:43:47.622Z,9.30
2018-10-21T09:46:16.155Z,9.30
2018-10-21T09:48:44.247Z,9.30
2018-10-21T09:51:12.467Z,9.30
2018-10-21T09:53:40.747Z,9.30
2018-10-21T09:56:08.945Z,9.30
2018-10-21T09:58:37.102Z,9.40
2018-10-21T10:01:10.655Z,9.40
2018-10-21T10:03:38.932Z,9.50
2018-10-21T10:06:07.107Z,9.50
2018-10-21T10:08:35.356Z,9.60
2018-10-21T10:11:03.592Z,9.60
2018-10-21T10:13:31.664Z,9.70
2018-10-21T10:15:59.996Z,9.80
2018-10-21T10:18:28.164Z,9.80
2018-10-21T10:20:56.214Z,9.80
2018-10-21T10:23:24.531Z,9.90
2018-10-21T10:25:52.748Z,9.90
2018-10-21T10:28:20.793Z,10.00
2018-10-21T10:30:49.711Z,10.10
2018-10-21T10:33:18.282Z,10.10
2018-10-21T10:35:46.352Z,10.10
2018-10-21T10:38:14.527Z,10.20
2018-10-21T10:40:42.650Z,10.20
2018-10-21T10:43:10.713Z,10.20
2018-10-21T10:45:39.149Z,10.20
2018-10-21T10:48:07.269Z,10.30
2018-10-21T10:50:35.339Z,10.30
2018-10-21T10:53:03.730Z,10.30
2018-10-21T10:55:37.017Z,10.40
2018-10-21T10:58:05.687Z,10.40
2018-10-21T11:00:33.770Z,10.40
2018-10-21T11:03:01.897Z,10.50
2018-10-21T11:05:30.274Z,10.50
2018-10-21T11:07:59.425Z,10.50
2018-10-21T11:10:27.496Z,10.50
2018-10-21T11:12:57.042Z,10.50
2018-10-21T11:15:25.171Z,10.60
2018-10-21T11:17:53.383Z,10.60
2018-10-21T11:20:21.853Z,10.70
2018-10-21T11:22:50.040Z,10.70
2018-10-21T11:25:18.702Z,10.70
2018-10-21T11:27:48.050Z,10.70
2018-10-21T11:30:16.159Z,10.70
2018-10-21T11:32:44.204Z,10.70
2018-10-21T11:35:12.519Z,10.70
2018-10-21T11:37:40.758Z,10.70
2018-10-21T11:40:08.843Z,10.70
2018-10-21T11:42:37.346Z,10.70
2018-10-21T11:45:06.241Z,10.70
2018-10-21T11:47:34.337Z,10.70
2018-10-21T11:50:02.778Z,10.70
2018-10-21T11:52:30.883Z,10.80
2018-10-21T11:54:59.028Z,10.80
2018-10-21T11:57:27.608Z,10.80
2018-10-21T11:59:55.699Z,10.90
2018-10-21T12:02:23.849Z,10.90
2018-10-21T12:04:52.143Z,11.00
2018-10-21T12:07:20.250Z,11.00
2018-10-21T12:09:48.503Z,11.00
2018-10-21T12:12:16.845Z,11.00
2018-10-21T12:14:44.983Z,11.10
2018-10-21T12:17:13.111Z,11.10
2018-10-21T12:19:41.365Z,11.20
2018-10-21T12:22:09.529Z,11.20
2018-10-21T12:24:37.609Z,11.20
2018-10-21T12:27:06.054Z,11.20
2018-10-21T12:29:34.366Z,11.20
2018-10-21T12:32:02.558Z,11.30
2018-10-21T12:34:30.820Z,11.30
2018-10-21T12:36:59.032Z,11.30
2018-10-21T12:39:27.574Z,11.30
2018-10-21T12:41:55.907Z,11.30
2018-10-21T12:44:24.014Z,11.30
2018-10-21T12:46:52.151Z,11.30
2018-10-21T12:49:20.570Z,11.40
2018-10-21T12:51:49.030Z,11.40
2018-10-21T12:54:18.496Z,11.40
2018-10-21T12:56:46.879Z,11.40
2018-10-21T12:59:15.043Z,11.50
2018-10-21T13:01:44.054Z,11.40
2018-10-21T13:04:12.735Z,11.50
2018-10-21T13:06:40.780Z,11.50
2018-10-21T13:09:09.536Z,11.50
2018-10-21T13:11:37.880Z,11.50
2018-10-21T13:14:06.050Z,11.60
2018-10-21T13:16:34.176Z,11.60
2018-10-21T13:19:02.561Z,11.60
2018-10-21T13:21:30.714Z,11.60
2018-10-21T13:23:58.914Z,11.60
2018-10-21T13:26:27.195Z,11.70
2018-10-21T13:28:55.495Z,11.60
2018-10-21T13:31:23.601Z,11.70
2018-10-21T13:33:52.030Z,11.70
2018-10-21T13:36:20.362Z,11.70
2018-10-21T13:38:48.763Z,11.70
2018-10-21T13:41:17.539Z,11.80
2018-10-21T13:43:45.832Z,11.80
2018-10-21T13:46:14.130Z,11.80
2018-10-21T13:48:42.769Z,11.80
2018-10-21T13:51:11.236Z,11.80
2018-10-21T13:53:39.360Z,11.80
2018-10-21T13:56:07.790Z,11.80
2018-10-21T13:58:35.887Z,11.90
2018-10-21T14:01:04.145Z,11.90
2018-10-21T14:03:32.567Z,11.90
2018-10-21T14:06:00.707Z,11.90
2018-10-21T14:08:28.798Z,11.90
2018-10-21T14:10:57.242Z,11.90
2018-10-21T14:13:25.431Z,11.90
2018-10-21T14:15:53.655Z,12.00
2018-10-21T14:18:21.890Z,12.00
2018-10-21T14:20:50.032Z,12.00
2018-10-21T14:23:18.900Z,12.00
2018-10-21T14:25:48.539Z,12.00
2018-10-21T14:28:16.911Z,12.00
2018-10-21T14:30:45.041Z,12.00
2018-10-21T14:33:13.500Z,12.00
2018-10-21T14:35:41.639Z,12.00
2018-10-21T14:38:09.795Z,12.00
2018-10-21T14:40:38.388Z,12.10
2018-10-21T14:43:06.589Z,12.10
2018-10-21T14:45:35.152Z,12.10
2018-10-21T14:48:04.732Z,12.20
2018-10-21T14:50:54.773Z,12.20
2018-10-21T14:53:23.063Z,12.20
2018-10-21T14:55:51.183Z,12.20
2018-10-21T14:58:20.883Z,12.20
2018-10-21T15:00:49.533Z,12.20
2018-10-21T15:03:18.304Z,12.20
2018-10-21T15:05:46.491Z,12.20
2018-10-21T15:08:15.020Z,12.20
2018-10-21T15:10:43.182Z,12.20
2018-10-21T15:13:11.338Z,12.20
2018-10-21T15:15:39.748Z,12.20
2018-10-21T15:20:50.926Z,12.20
2018-10-21T15:23:20.138Z,12.20
2018-10-21T15:25:49.724Z,12.20
2018-10-21T15:28:18.816Z,12.20
2018-10-21T15:30:46.944Z,12.30
2018-10-21T15:33:15.133Z,12.30
2018-10-21T15:35:43.492Z,12.30
2018-10-21T15:38:11.791Z,12.30
2018-10-21T15:40:39.968Z,12.30
2018-10-21T15:43:08.476Z,12.30
2018-10-21T15:45:36.769Z,12.30
2018-10-21T15:48:05.106Z,12.40
2018-10-21T15:50:33.620Z,12.30
2018-10-21T15:53:01.737Z,12.30
2018-10-21T15:55:29.899Z,12.40
2018-10-21T15:57:58.705Z,12.40
2018-10-21T16:00:26.997Z,12.40
2018-10-21T16:02:55.163Z,12.40
2018-10-21T16:05:23.443Z,12.40
2018-10-21T16:07:51.538Z,12.40
2018-10-21T16:10:20.246Z,12.40
2018-10-21T16:12:48.762Z,12.50
2018-10-21T16:15:17.319Z,12.50
2018-10-21T16:17:46.166Z,12.50
2018-10-21T16:20:14.733Z,12.50
2018-10-21T16:22:43.815Z,12.50
2018-10-21T16:25:13.123Z,12.50
2018-10-21T16:27:41.741Z,12.50
2018-10-21T16:30:11.580Z,12.40
2018-10-21T16:32:40.063Z,12.40
2018-10-21T16:35:08.950Z,12.40
2018-10-21T16:37:37.374Z,12.40
2018-10-21T16:40:06.335Z,12.40
2018-10-21T16:42:34.637Z,12.50
2018-10-21T16:45:02.762Z,12.50
2018-10-21T16:47:30.881Z,12.50
2018-10-21T16:49:59.329Z,12.50
2018-10-21T16:52:27.483Z,12.50
2018-10-21T16:54:56.342Z,12.50
2018-10-21T16:57:24.726Z,12.50
2018-10-21T16:59:52.942Z,12.50
2018-10-21T17:02:21.078Z,12.50
2018-10-21T17:04:49.835Z,12.50
2018-10-21T17:07:18.599Z,12.50
2018-10-21T17:09:46.996Z,12.50
2018-10-21T17:12:15.406Z,12.60
2018-10-21T17:14:43.527Z,12.60
2018-10-21T17:17:12.561Z,12.60
2018-10-21T17:19:41.129Z,12.60
2018-10-21T17:22:09.351Z,12.60
2018-10-21T17:24:37.528Z,12.60
2018-10-21T17:27:06.005Z,12.60
2018-10-21T17:29:34.106Z,12.60
2018-10-21T17:32:02.228Z,12.60
2018-10-21T17:34:30.685Z,12.60
2018-10-21T17:36:58.815Z,12.60
2018-10-21T17:39:26.980Z,12.60
2018-10-21T17:41:55.567Z,12.60
2018-10-21T17:44:23.704Z,12.60
2018-10-21T17:46:51.921Z,12.60
2018-10-21T17:49:20.599Z,12.60
2018-10-21T17:51:49.143Z,12.60
2018-10-21T17:54:17.391Z,12.60
2018-10-21T17:56:51.017Z,12.60
2018-10-21T17:59:20.454Z,12.60
2018-10-21T18:01:48.777Z,12.60
2018-10-21T18:04:17.295Z,12.50
2018-10-21T18:06:45.648Z,12.60
2018-10-21T18:09:13.974Z,12.60
2018-10-21T18:11:42.459Z,12.50
2018-10-21T18:14:10.573Z,12.50
2018-10-21T18:16:38.719Z,12.50
2018-10-21T18:19:07.631Z,12.60
2018-10-21T18:21:35.816Z,12.60
2018-10-21T18:24:03.988Z,12.60
2018-10-21T18:26:32.227Z,12.60
2018-10-21T18:29:00.433Z,12.60
2018-10-21T18:31:28.503Z,12.60
2018-10-21T18:33:56.786Z,12.60
2018-10-21T18:36:25.024Z,12.60
2018-10-21T18:38:53.284Z,12.60
2018-10-21T18:41:21.553Z,12.60
2018-10-21T18:43:49.962Z,12.60
2018-10-21T18:46:18.832Z,12.60
2018-10-21T18:48:47.056Z,12.70
2018-10-21T18:51:15.438Z,12.70
2018-10-21T18:53:43.522Z,12.70
2018-10-21T18:56:11.711Z,12.70
2018-10-21T18:58:39.986Z,12.80
2018-10-21T19:01:08.203Z,12.70
2018-10-21T19:03:36.464Z,12.70
2018-10-21T19:06:04.714Z,12.70
2018-10-21T19:08:32.913Z,12.70
2018-10-21T19:11:01.230Z,12.70
2018-10-21T19:13:29.448Z,12.70
2018-10-21T19:15:57.636Z,12.70
2018-10-21T19:18:25.829Z,12.70
2018-10-21T19:20:54.023Z,12.70
2018-10-21T19:23:22.192Z,12.70
2018-10-21T19:25:50.531Z,12.70
2018-10-21T19:28:19.407Z,12.70
2018-10-21T19:30:47.929Z,12.80
2018-10-21T19:33:16.194Z,12.80
2018-10-21T19:35:44.348Z,12.80
2018-10-21T19:38:12.418Z,12.80
2018-10-21T19:40:40.611Z,12.80
2018-10-21T19:43:08.921Z,12.80
2018-10-21T19:45:36.976Z,12.80
2018-10-21T19:48:05.442Z,12.80
2018-10-21T19:50:33.584Z,12.80
2018-10-21T19:53:01.747Z,12.80
2018-10-21T19:55:30.072Z,12.90
2018-10-21T19:57:58.709Z,12.90
2018-10-21T20:00:26.758Z,12.90
2018-10-21T20:02:55.035Z,12.90
2018-10-21T20:05:23.181Z,12.90
2018-10-21T20:07:51.255Z,12.90
2018-10-21T20:10:19.997Z,12.90
2018-10-21T20:12:48.469Z,12.90
2018-10-21T20:15:16.587Z,12.90
2018-10-21T20:17:44.971Z,12.90
2018-10-21T20:20:13.291Z,12.90
2018-10-21T20:22:41.633Z,12.90
2018-10-21T20:25:10.604Z,13.00
2018-10-21T20:27:38.914Z,13.00
2018-10-21T20:30:07.828Z,13.00
2018-10-21T20:32:36.111Z,13.00
2018-10-21T20:35:04.585Z,13.00
2018-10-21T20:37:32.714Z,13.00
2018-10-21T20:40:01.304Z,13.00
2018-10-21T20:42:29.381Z,13.00
2018-10-21T20:44:57.567Z,13.00
2018-10-21T20:47:25.815Z,13.00
2018-10-21T20:49:53.989Z,13.00
2018-10-21T20:52:22.068Z,13.10
2018-10-21T20:54:50.965Z,13.10
2018-10-21T20:57:19.715Z,13.10
2018-10-21T20:59:48.707Z,13.10
2018-10-21T21:02:17.427Z,13.10
2018-10-21T21:04:45.483Z,13.10
2018-10-21T21:07:13.560Z,13.10
2018-10-21T21:09:41.830Z,13.10
2018-10-21T21:12:10.058Z,13.10
2018-10-21T21:14:38.128Z,13.10
2018-10-21T21:17:06.433Z,13.10
2018-10-21T21:19:34.527Z,13.10
2018-10-21T21:22:02.901Z,13.10
2018-10-21T21:24:31.127Z,13.10
2018-10-21T21:26:59.201Z,13.10
2018-10-21T21:29:27.324Z,13.10
2018-10-21T21:31:55.497Z,13.10
2018-10-21T21:34:23.669Z,13.10
2018-10-21T21:36:51.770Z,13.10
2018-10-21T21:39:20.580Z,13.10
2018-10-21T21:41:48.768Z,13.10
2018-10-21T21:44:16.829Z,13.10
2018-10-21T21:46:45.189Z,13.10
2018-10-21T21:49:14.196Z,13.10
2018-10-21T21:51:42.229Z,13.20
2018-10-21T21:54:12.786Z,13.20
2018-10-21T21:56:41.474Z,13.20
2018-10-21T21:59:09.600Z,13.20
2018-10-21T22:01:38.163Z,13.20
2018-10-21T22:04:06.512Z,13.20
2018-10-21T22:06:34.580Z,13.20
2018-10-21T22:09:02.782Z,13.20
2018-10-21T22:11:31.061Z,13.20
2018-10-21T22:13:59.263Z,13.20
2018-10-21T22:16:27.479Z,13.20
2018-10-21T22:18:55.908Z,13.20
2018-10-21T22:21:24.251Z,13.20
2018-10-21T22:23:52.752Z,13.20
2018-10-21T22:26:21.174Z,13.20
2018-10-21T22:28:49.608Z,13.20
2018-10-21T22:31:18.398Z,13.20
2018-10-21T22:33:46.553Z,13.20
2018-10-21T22:36:14.742Z,13.20
2018-10-21T22:38:43.009Z,13.10
2018-10-21T22:41:11.128Z,13.10
2018-10-21T22:43:39.278Z,13.10
2018-10-21T22:46:07.885Z,13.10
2018-10-21T22:48:36.304Z,13.00
2018-10-21T22:51:04.390Z,13.00
2018-10-21T22:53:32.613Z,13.00
2018-10-21T22:56:00.684Z,13.00
2018-10-21T22:58:28.852Z,13.00
2018-10-21T23:00:57.071Z,13.00
2018-10-21T23:03:25.167Z,13.00
2018-10-21T23:05:53.377Z,13.00
2018-10-21T23:08:22.165Z,13.00
2018-10-21T23:10:50.256Z,13.00
2018-10-21T23:13:18.627Z,12.90
2018-10-21T23:15:46.873Z,12.90
2018-10-21T23:18:15.124Z,12.90
2018-10-21T23:20:43.447Z,12.90
2018-10-21T23:23:11.760Z,12.90
2018-10-21T23:25:39.886Z,12.90
2018-10-21T23:28:08.037Z,12.90
2018-10-21T23:30:36.441Z,12.90
2018-10-21T23:33:04.627Z,12.90
2018-10-21T23:39:03.792Z,12.80
2018-10-21T23:41:31.862Z,12.80
2018-10-21T23:44:00.132Z,12.80
2018-10-21T23:46:28.239Z,12.80
2018-10-21T23:48:56.368Z,12.70
2018-10-21T23:51:24.609Z,12.70
2018-10-21T23:53:52.781Z,12.70
2018-10-21T23:56:21.272Z,12.70
2018-10-21T23:58:49.895Z,12.70
